createdAt,value
2023-06-30T00:00:01.594Z,22.61
2023-06-30T00:01:01.611Z,22.45
2023-06-30T00:02:01.571Z,22.46
2023-06-30T00:03:01.694Z,22.52
2023-06-30T00:04:01.690Z,22.54
2023-06-30T00:05:01.540Z,22.60
2023-06-30T00:06:01.557Z,22.61
2023-06-30T00:07:01.548Z,22.64
2023-06-30T00:08:01.533Z,22.66
2023-06-30T00:09:01.527Z,22.63
2023-06-30T00:10:01.526Z,22.64
2023-06-30T00:11:01.517Z,22.56
2023-06-30T00:12:01.529Z,22.46
2023-06-30T00:13:01.503Z,22.49
2023-06-30T00:14:01.500Z,22.49
2023-06-30T00:15:01.558Z,22.42
2023-06-30T00:16:01.524Z,22.42
2023-06-30T00:17:01.501Z,22.29
2023-06-30T00:18:01.518Z,22.33
2023-06-30T00:19:01.472Z,22.30
2023-06-30T00:20:01.473Z,22.29
2023-06-30T00:21:01.473Z,22.27
2023-06-30T00:22:01.465Z,22.21
2023-06-30T00:23:01.458Z,22.27
2023-06-30T00:24:01.451Z,22.23
2023-06-30T00:25:01.470Z,22.26
2023-06-30T00:26:01.441Z,22.23
2023-06-30T00:27:01.434Z,22.15
2023-06-30T00:28:01.433Z,22.21
2023-06-30T00:29:01.424Z,22.17
2023-06-30T00:30:01.497Z,22.21
2023-06-30T00:31:01.450Z,22.15
2023-06-30T00:32:01.415Z,22.14
2023-06-30T00:33:01.471Z,22.08
2023-06-30T00:34:01.419Z,22.12
2023-06-30T00:35:01.398Z,22.06
2023-06-30T00:36:01.402Z,22.06
2023-06-30T00:37:01.384Z,22.05
2023-06-30T00:38:01.398Z,22.05
2023-06-30T00:39:01.376Z,21.94
2023-06-30T00:40:01.372Z,21.91
2023-06-30T00:41:01.368Z,22.05
2023-06-30T00:42:01.361Z,21.90
2023-06-30T00:43:01.356Z,21.91
2023-06-30T00:44:01.349Z,21.98
2023-06-30T00:45:01.427Z,21.98
2023-06-30T00:46:01.339Z,22.02
2023-06-30T00:47:01.399Z,21.99
2023-06-30T00:48:01.382Z,21.90
2023-06-30T00:49:01.346Z,21.99
2023-06-30T00:50:01.317Z,22.01
2023-06-30T00:51:01.307Z,21.96
2023-06-30T00:52:01.307Z,21.98
2023-06-30T00:53:01.312Z,21.91
2023-06-30T00:54:01.314Z,21.90
2023-06-30T00:55:01.307Z,21.90
2023-06-30T00:56:01.291Z,21.89
2023-06-30T00:57:01.283Z,21.90
2023-06-30T00:58:01.276Z,21.93
2023-06-30T00:59:01.269Z,21.91
2023-06-30T01:00:01.282Z,21.75
2023-06-30T01:01:01.262Z,21.74
2023-06-30T01:02:01.389Z,21.74
2023-06-30T01:03:01.336Z,21.77
2023-06-30T01:04:01.411Z,21.77
2023-06-30T01:05:01.289Z,21.73
2023-06-30T01:06:01.244Z,21.74
2023-06-30T01:07:01.255Z,21.90
2023-06-30T01:08:01.230Z,21.85
2023-06-30T01:09:01.219Z,21.77
2023-06-30T01:10:01.220Z,21.83
2023-06-30T01:11:01.216Z,21.86
2023-06-30T01:12:01.212Z,21.77
2023-06-30T01:13:01.201Z,21.89
2023-06-30T01:14:01.201Z,21.85
2023-06-30T01:15:01.192Z,21.79
2023-06-30T01:16:01.183Z,21.77
2023-06-30T01:17:01.207Z,21.73
2023-06-30T01:18:01.363Z,21.67
2023-06-30T01:19:01.166Z,21.70
2023-06-30T01:20:01.174Z,21.64
2023-06-30T01:21:01.234Z,21.66
2023-06-30T01:22:01.159Z,21.66
2023-06-30T01:23:01.158Z,21.63
2023-06-30T01:24:01.143Z,21.59
2023-06-30T01:25:01.159Z,21.61
2023-06-30T01:26:01.183Z,21.52
2023-06-30T01:27:01.128Z,21.55
2023-06-30T01:28:01.127Z,21.49
2023-06-30T01:29:01.164Z,21.59
2023-06-30T01:30:01.124Z,21.56
2023-06-30T01:31:01.136Z,21.55
2023-06-30T01:32:01.101Z,21.52
2023-06-30T01:33:01.160Z,21.51
2023-06-30T01:34:01.092Z,21.45
2023-06-30T01:35:01.083Z,21.38
2023-06-30T01:36:01.083Z,21.52
2023-06-30T01:37:01.091Z,21.48
2023-06-30T01:38:01.073Z,21.46
2023-06-30T01:39:01.074Z,21.43
2023-06-30T01:40:01.072Z,21.49
2023-06-30T01:41:01.050Z,21.53
2023-06-30T01:42:01.046Z,21.53
2023-06-30T01:43:01.040Z,21.56
2023-06-30T01:44:01.037Z,21.49
2023-06-30T01:45:01.042Z,21.52
2023-06-30T01:46:01.085Z,21.56
2023-06-30T01:47:51.582Z,21.55
2023-06-30T01:48:51.544Z,21.51
2023-06-30T01:49:51.555Z,21.42
2023-06-30T01:50:51.533Z,21.48
2023-06-30T01:51:51.532Z,21.42
2023-06-30T01:52:51.555Z,21.48
2023-06-30T01:53:51.521Z,21.40
2023-06-30T01:54:51.513Z,21.42
2023-06-30T01:55:51.522Z,21.40
2023-06-30T01:56:51.510Z,21.45
2023-06-30T01:57:51.522Z,21.49
2023-06-30T01:58:51.491Z,21.46
2023-06-30T01:59:51.488Z,21.49
2023-06-30T02:00:51.481Z,21.46
2023-06-30T02:01:51.503Z,21.38
2023-06-30T02:02:51.562Z,21.43
2023-06-30T02:03:51.535Z,21.43
2023-06-30T02:04:51.459Z,21.42
2023-06-30T02:05:51.456Z,21.37
2023-06-30T02:06:51.499Z,21.45
2023-06-30T02:07:51.444Z,21.38
2023-06-30T02:08:51.517Z,21.37
2023-06-30T02:09:51.460Z,21.38
2023-06-30T02:10:51.437Z,21.37
2023-06-30T02:11:51.422Z,21.36
2023-06-30T02:12:51.420Z,21.34
2023-06-30T02:13:51.412Z,21.31
2023-06-30T02:14:51.408Z,21.36
2023-06-30T02:15:51.440Z,21.33
2023-06-30T02:16:51.442Z,21.36
2023-06-30T02:17:51.437Z,21.30
2023-06-30T02:18:51.378Z,21.33
2023-06-30T02:19:51.376Z,21.30
2023-06-30T02:20:51.372Z,21.26
2023-06-30T02:21:51.365Z,21.34
2023-06-30T02:22:51.365Z,21.28
2023-06-30T02:23:51.354Z,21.24
2023-06-30T02:24:51.364Z,21.26
2023-06-30T02:25:51.344Z,21.30
2023-06-30T02:26:51.334Z,21.34
2023-06-30T02:27:51.335Z,21.31
2023-06-30T02:28:51.322Z,21.27
2023-06-30T02:29:51.334Z,21.22
2023-06-30T02:30:51.322Z,21.24
2023-06-30T02:31:51.339Z,21.30
2023-06-30T02:32:51.335Z,21.27
2023-06-30T02:33:51.497Z,21.22
2023-06-30T02:34:51.307Z,21.21
2023-06-30T02:35:51.285Z,21.18
2023-06-30T02:36:51.277Z,21.27
2023-06-30T02:37:51.306Z,21.22
2023-06-30T02:38:51.268Z,21.28
2023-06-30T02:39:51.262Z,21.19
2023-06-30T02:40:51.272Z,21.27
2023-06-30T02:41:51.256Z,21.18
2023-06-30T02:42:51.243Z,21.18
2023-06-30T02:43:51.256Z,21.19
2023-06-30T02:44:51.235Z,21.15
2023-06-30T02:45:51.246Z,21.21
2023-06-30T02:46:51.231Z,21.13
2023-06-30T02:47:51.252Z,21.27
2023-06-30T02:48:51.214Z,21.24
2023-06-30T02:49:51.211Z,21.21
2023-06-30T02:50:51.198Z,21.18
2023-06-30T02:51:51.192Z,21.26
2023-06-30T02:52:51.185Z,21.22
2023-06-30T02:53:51.183Z,21.34
2023-06-30T02:54:51.180Z,21.21
2023-06-30T02:55:51.177Z,21.26
2023-06-30T02:56:51.181Z,21.30
2023-06-30T02:57:51.155Z,21.18
2023-06-30T02:58:51.155Z,21.21
2023-06-30T02:59:51.146Z,21.19
2023-06-30T03:00:51.190Z,21.22
2023-06-30T03:01:51.217Z,21.15
2023-06-30T03:02:51.283Z,21.16
2023-06-30T03:03:51.232Z,21.13
2023-06-30T03:04:51.121Z,21.11
2023-06-30T03:05:51.111Z,21.12
2023-06-30T03:06:51.199Z,21.22
2023-06-30T03:07:51.104Z,21.11
2023-06-30T03:08:51.092Z,21.15
2023-06-30T03:09:51.090Z,21.15
2023-06-30T03:10:51.080Z,21.13
2023-06-30T03:12:51.089Z,21.16
2023-06-30T03:13:51.269Z,21.21
2023-06-30T03:14:51.065Z,21.18
2023-06-30T03:15:51.050Z,21.16
2023-06-30T03:16:51.073Z,21.22
2023-06-30T03:17:51.050Z,21.16
2023-06-30T03:18:51.036Z,21.22
2023-06-30T03:19:51.026Z,21.16
2023-06-30T03:20:51.020Z,21.24
2023-06-30T03:21:51.013Z,21.22
2023-06-30T03:22:51.012Z,21.24
2023-06-30T03:23:51.006Z,21.27
2023-06-30T03:24:51.001Z,21.19
2023-06-30T03:25:50.993Z,21.26
2023-06-30T03:26:50.989Z,21.22
2023-06-30T03:27:50.984Z,21.13
2023-06-30T03:28:51.020Z,21.16
2023-06-30T03:29:50.972Z,21.22
2023-06-30T03:30:50.990Z,21.36
2023-06-30T03:31:50.956Z,21.33
2023-06-30T03:32:50.981Z,21.31
2023-06-30T03:33:50.965Z,21.42
2023-06-30T03:34:50.942Z,21.43
2023-06-30T03:35:50.940Z,21.43
2023-06-30T03:36:50.937Z,21.40
2023-06-30T03:37:50.925Z,21.40
2023-06-30T03:38:50.930Z,21.37
2023-06-30T03:39:50.913Z,21.42
2023-06-30T03:40:50.929Z,21.49
2023-06-30T03:41:50.900Z,21.46
2023-06-30T03:42:50.897Z,21.42
2023-06-30T03:43:50.889Z,21.49
2023-06-30T03:44:50.912Z,21.49
2023-06-30T03:45:50.880Z,21.49
2023-06-30T03:46:51.015Z,21.51
2023-06-30T03:47:50.894Z,21.52
2023-06-30T03:48:50.866Z,21.55
2023-06-30T03:49:50.855Z,21.48
2023-06-30T03:50:50.852Z,21.52
2023-06-30T03:51:50.844Z,21.52
2023-06-30T03:52:50.849Z,21.49
2023-06-30T03:53:50.837Z,21.43
2023-06-30T03:54:50.834Z,21.52
2023-06-30T03:55:50.820Z,21.48
2023-06-30T03:56:50.828Z,21.55
2023-06-30T03:57:50.813Z,21.43
2023-06-30T03:58:50.809Z,21.43
2023-06-30T03:59:50.800Z,21.51
2023-06-30T04:00:50.814Z,21.51
2023-06-30T04:01:50.788Z,21.51
2023-06-30T04:02:50.884Z,21.49
2023-06-30T04:03:50.900Z,21.55
2023-06-30T04:04:50.808Z,21.49
2023-06-30T04:05:50.764Z,21.58
2023-06-30T04:06:50.815Z,21.53
2023-06-30T04:07:50.857Z,21.53
2023-06-30T04:08:50.777Z,21.51
2023-06-30T04:09:50.750Z,21.61
2023-06-30T04:10:50.740Z,21.59
2023-06-30T04:11:50.738Z,21.55
2023-06-30T04:12:50.729Z,21.61
2023-06-30T04:13:50.733Z,21.68
2023-06-30T04:14:50.717Z,21.61
2023-06-30T04:15:50.709Z,21.67
2023-06-30T04:16:50.731Z,21.59
2023-06-30T04:17:50.739Z,21.63
2023-06-30T04:18:50.693Z,21.70
2023-06-30T04:19:50.688Z,21.64
2023-06-30T04:20:50.686Z,21.71
2023-06-30T04:21:50.679Z,21.73
2023-06-30T04:22:50.682Z,21.61
2023-06-30T04:23:50.664Z,21.70
2023-06-30T04:24:50.661Z,21.70
2023-06-30T04:25:50.654Z,21.71
2023-06-30T04:26:50.656Z,21.77
2023-06-30T04:27:50.641Z,21.75
2023-06-30T04:28:50.651Z,21.74
2023-06-30T04:29:50.659Z,21.64
2023-06-30T04:30:50.631Z,21.75
2023-06-30T04:31:50.645Z,21.73
2023-06-30T04:32:50.684Z,21.74
2023-06-30T04:33:50.623Z,21.68
2023-06-30T04:34:50.607Z,21.63
2023-06-30T04:35:50.648Z,21.74
2023-06-30T04:36:50.601Z,21.71
2023-06-30T04:37:50.587Z,21.71
2023-06-30T04:38:50.629Z,21.73
2023-06-30T04:39:50.580Z,21.73
2023-06-30T04:40:50.575Z,21.73
2023-06-30T04:41:50.578Z,21.75
2023-06-30T04:42:50.588Z,21.77
2023-06-30T04:43:50.558Z,21.73
2023-06-30T04:44:50.555Z,21.79
2023-06-30T04:45:50.564Z,21.79
2023-06-30T04:46:50.541Z,21.73
2023-06-30T04:47:50.609Z,21.73
2023-06-30T04:48:50.550Z,21.70
2023-06-30T04:49:50.518Z,21.79
2023-06-30T04:50:50.537Z,21.91
2023-06-30T04:51:50.510Z,21.83
2023-06-30T04:52:50.503Z,21.93
2023-06-30T04:53:50.505Z,21.83
2023-06-30T04:54:50.497Z,21.89
2023-06-30T04:55:50.528Z,21.94
2023-06-30T04:56:50.483Z,21.96
2023-06-30T04:57:50.476Z,21.98
2023-06-30T04:58:50.489Z,21.94
2023-06-30T04:59:50.464Z,22.01
2023-06-30T05:00:50.460Z,22.04
2023-06-30T05:01:50.515Z,21.85
2023-06-30T05:02:50.508Z,21.90
2023-06-30T05:03:50.547Z,21.91
2023-06-30T05:04:50.471Z,21.98
2023-06-30T05:05:50.429Z,21.96
2023-06-30T05:06:50.425Z,21.96
2023-06-30T05:07:50.416Z,21.91
2023-06-30T05:08:50.414Z,22.01
2023-06-30T05:09:50.408Z,22.02
2023-06-30T05:10:50.401Z,22.01
2023-06-30T05:11:50.398Z,21.91
2023-06-30T05:12:50.390Z,21.91
2023-06-30T05:13:50.380Z,21.94
2023-06-30T05:14:50.390Z,21.98
2023-06-30T05:15:50.608Z,21.94
2023-06-30T05:16:50.503Z,21.90
2023-06-30T05:17:50.393Z,21.89
2023-06-30T05:18:50.360Z,21.89
2023-06-30T05:19:50.347Z,21.86
2023-06-30T05:20:50.382Z,21.77
2023-06-30T05:21:50.336Z,21.74
2023-06-30T05:22:50.338Z,21.77
2023-06-30T05:23:50.324Z,21.70
2023-06-30T05:24:50.321Z,21.73
2023-06-30T05:25:50.315Z,21.75
2023-06-30T05:26:50.319Z,21.74
2023-06-30T05:27:50.306Z,21.67
2023-06-30T05:29:03.367Z,21.66
2023-06-30T05:29:50.289Z,21.67
2023-06-30T05:30:50.292Z,21.64
2023-06-30T05:31:50.346Z,21.61
2023-06-30T05:32:50.313Z,21.59
2023-06-30T05:33:50.270Z,21.66
2023-06-30T05:34:50.269Z,21.56
2023-06-30T05:35:50.258Z,21.52
2023-06-30T05:36:50.273Z,21.53
2023-06-30T05:37:50.257Z,21.52
2023-06-30T05:38:50.243Z,21.53
2023-06-30T05:39:50.235Z,21.63
2023-06-30T05:40:50.232Z,21.63
2023-06-30T05:41:50.228Z,21.56
2023-06-30T05:42:50.249Z,21.64
2023-06-30T05:43:50.217Z,21.68
2023-06-30T05:44:50.209Z,21.67
2023-06-30T05:45:50.202Z,21.68
2023-06-30T05:46:50.325Z,21.64
2023-06-30T05:47:50.226Z,21.66
2023-06-30T05:48:50.180Z,21.64
2023-06-30T05:49:50.170Z,21.63
2023-06-30T05:50:50.172Z,21.70
2023-06-30T05:51:50.161Z,21.71
2023-06-30T05:52:50.311Z,21.77
2023-06-30T05:53:50.166Z,21.77
2023-06-30T05:54:50.148Z,21.77
2023-06-30T05:55:50.140Z,21.74
2023-06-30T05:56:50.135Z,21.67
2023-06-30T05:57:50.127Z,21.74
2023-06-30T05:58:50.126Z,21.74
2023-06-30T05:59:50.115Z,21.64
2023-06-30T06:00:50.118Z,21.74
2023-06-30T06:01:51.052Z,21.68
2023-06-30T06:02:50.217Z,21.63
2023-06-30T06:03:50.278Z,21.70
2023-06-30T06:04:50.265Z,21.71
2023-06-30T06:05:50.846Z,21.73
2023-06-30T06:06:50.078Z,21.66
2023-06-30T06:07:50.078Z,21.61
2023-06-30T06:08:50.098Z,21.64
2023-06-30T06:09:50.085Z,21.66
2023-06-30T06:10:50.054Z,21.70
2023-06-30T06:11:50.059Z,21.63
2023-06-30T06:12:50.070Z,21.67
2023-06-30T06:13:50.043Z,21.52
2023-06-30T06:14:50.044Z,21.49
2023-06-30T06:15:50.032Z,21.48
2023-06-30T06:16:50.063Z,21.49
2023-06-30T06:17:50.075Z,21.55
2023-06-30T06:18:50.047Z,21.63
2023-06-30T06:19:50.020Z,21.58
2023-06-30T06:20:50.032Z,21.53
2023-06-30T06:21:50.012Z,21.58
2023-06-30T06:22:49.994Z,21.55
2023-06-30T06:23:49.986Z,21.49
2023-06-30T06:24:49.997Z,21.45
2023-06-30T06:25:50.182Z,21.42
2023-06-30T06:26:49.965Z,21.46
2023-06-30T06:27:49.963Z,21.40
2023-06-30T06:28:49.953Z,21.51
2023-06-30T06:29:49.956Z,21.40
2023-06-30T06:30:49.999Z,21.40
2023-06-30T06:31:50.154Z,21.42
2023-06-30T06:32:49.949Z,21.48
2023-06-30T06:33:49.928Z,21.46
2023-06-30T06:34:49.921Z,21.38
2023-06-30T06:35:49.926Z,21.37
2023-06-30T06:36:49.915Z,21.26
2023-06-30T06:37:49.905Z,21.37
2023-06-30T06:38:49.899Z,21.42
2023-06-30T06:39:49.895Z,21.42
2023-06-30T06:40:49.943Z,21.42
2023-06-30T06:41:49.883Z,21.37
2023-06-30T06:42:49.891Z,21.37
2023-06-30T06:43:49.888Z,21.36
2023-06-30T06:44:49.860Z,21.31
2023-06-30T06:45:49.865Z,21.30
2023-06-30T06:46:49.894Z,21.34
2023-06-30T06:47:49.933Z,21.30
2023-06-30T06:48:49.886Z,21.37
2023-06-30T06:49:49.834Z,21.37
2023-06-30T06:50:49.829Z,21.31
2023-06-30T06:51:49.824Z,21.42
2023-06-30T06:52:49.817Z,21.49
2023-06-30T06:53:49.811Z,21.31
2023-06-30T06:54:49.803Z,21.33
2023-06-30T06:55:49.809Z,21.30
2023-06-30T06:56:49.818Z,21.30
2023-06-30T06:57:49.956Z,21.33
2023-06-30T06:58:49.786Z,21.31
2023-06-30T06:59:49.777Z,21.38
2023-06-30T07:00:49.768Z,21.31
2023-06-30T07:01:49.845Z,21.37
2023-06-30T07:02:49.812Z,21.38
2023-06-30T07:03:49.856Z,21.37
2023-06-30T07:04:49.784Z,21.36
2023-06-30T07:05:49.744Z,21.38
2023-06-30T07:06:49.742Z,21.40
2023-06-30T07:07:49.761Z,21.36
2023-06-30T07:08:49.734Z,21.45
2023-06-30T07:09:49.715Z,21.40
2023-06-30T07:10:49.715Z,21.42
2023-06-30T07:11:49.707Z,21.42
2023-06-30T07:12:49.713Z,21.45
2023-06-30T07:13:49.694Z,21.37
2023-06-30T07:14:50.314Z,21.45
2023-06-30T07:15:49.972Z,21.45
2023-06-30T07:16:49.725Z,21.48
2023-06-30T07:17:49.780Z,21.46
2023-06-30T07:18:49.786Z,21.52
2023-06-30T07:19:49.659Z,21.52
2023-06-30T07:20:49.645Z,21.55
2023-06-30T07:21:49.643Z,21.56
2023-06-30T07:22:49.635Z,21.56
2023-06-30T07:23:49.634Z,21.71
2023-06-30T07:24:49.623Z,21.75
2023-06-30T07:26:49.620Z,21.74
2023-06-30T07:27:49.609Z,21.75
2023-06-30T07:28:49.630Z,21.75
2023-06-30T07:29:49.595Z,21.71
2023-06-30T07:30:49.611Z,21.71
2023-06-30T07:31:49.597Z,21.79
2023-06-30T07:32:49.598Z,21.79
2023-06-30T07:33:49.580Z,21.74
2023-06-30T07:34:49.570Z,21.77
2023-06-30T07:35:49.838Z,21.82
2023-06-30T07:36:49.561Z,21.79
2023-06-30T07:37:49.550Z,21.81
2023-06-30T07:38:49.548Z,21.83
2023-06-30T07:39:49.538Z,21.89
2023-06-30T07:40:56.390Z,21.90
2023-06-30T07:41:49.585Z,21.83
2023-06-30T07:42:49.521Z,21.83
2023-06-30T07:43:49.533Z,21.83
2023-06-30T07:44:49.534Z,21.83
2023-06-30T07:45:49.941Z,21.90
2023-06-30T07:46:49.504Z,21.89
2023-06-30T07:47:49.988Z,21.86
2023-06-30T07:48:49.596Z,21.98
2023-06-30T07:49:49.482Z,21.91
2023-06-30T07:51:03.336Z,21.94
2023-06-30T07:51:49.472Z,22.01
2023-06-30T07:52:49.464Z,21.98
2023-06-30T07:53:49.461Z,22.01
2023-06-30T07:54:49.457Z,22.05
2023-06-30T07:55:49.451Z,22.06
2023-06-30T07:56:49.442Z,22.06
2023-06-30T07:57:49.435Z,22.05
2023-06-30T07:58:49.434Z,22.06
2023-06-30T07:59:49.426Z,22.14
2023-06-30T08:00:49.441Z,22.23
2023-06-30T08:01:49.413Z,22.27
2023-06-30T08:02:49.518Z,22.30
2023-06-30T08:03:49.560Z,22.29
2023-06-30T08:04:49.627Z,22.38
2023-06-30T08:05:50.131Z,22.42
2023-06-30T08:06:49.392Z,22.45
2023-06-30T08:07:51.305Z,22.41
2023-06-30T08:08:49.379Z,22.39
2023-06-30T08:09:49.378Z,22.46
2023-06-30T08:10:49.370Z,22.36
2023-06-30T08:11:49.361Z,22.46
2023-06-30T08:12:49.360Z,22.52
2023-06-30T08:13:49.365Z,22.59
2023-06-30T08:14:49.349Z,22.63
2023-06-30T08:15:50.133Z,22.64
2023-06-30T08:16:49.390Z,22.69
2023-06-30T08:17:53.712Z,22.63
2023-06-30T08:18:52.178Z,22.67
2023-06-30T08:19:50.145Z,22.61
2023-06-30T08:20:49.316Z,22.72
2023-06-30T08:21:49.360Z,22.78
2023-06-30T08:22:49.312Z,22.85
2023-06-30T08:23:49.297Z,22.89
2023-06-30T08:24:49.301Z,22.96
2023-06-30T08:25:49.306Z,22.97
2023-06-30T08:26:49.285Z,23.00
2023-06-30T08:27:49.288Z,23.00
2023-06-30T08:28:49.279Z,22.94
2023-06-30T08:29:49.270Z,23.11
2023-06-30T08:30:49.309Z,22.96
2023-06-30T08:31:49.307Z,23.00
2023-06-30T08:32:49.286Z,23.07
2023-06-30T08:33:49.260Z,23.01
2023-06-30T08:34:49.250Z,22.91
2023-06-30T08:35:49.246Z,22.74
2023-06-30T08:36:49.296Z,22.69
2023-06-30T08:37:52.732Z,22.66
2023-06-30T08:38:49.235Z,22.78
2023-06-30T08:39:49.291Z,22.89
2023-06-30T08:40:49.263Z,23.00
2023-06-30T08:41:49.212Z,22.99
2023-06-30T08:42:49.211Z,23.01
2023-06-30T08:43:49.208Z,23.07
2023-06-30T08:44:49.200Z,23.11
2023-06-30T08:46:49.342Z,23.19
2023-06-30T08:47:49.227Z,23.31
2023-06-30T08:48:49.403Z,23.35
2023-06-30T08:49:49.188Z,23.39
2023-06-30T08:50:49.229Z,23.45
2023-06-30T08:51:49.185Z,23.60
2023-06-30T08:52:49.164Z,23.77
2023-06-30T08:53:49.169Z,23.92
2023-06-30T08:54:49.159Z,24.05
2023-06-30T08:55:49.165Z,24.09
2023-06-30T08:56:49.150Z,24.12
2023-06-30T08:57:49.146Z,24.12
2023-06-30T08:58:49.144Z,24.30
2023-06-30T08:59:49.149Z,24.33
2023-06-30T09:00:49.177Z,24.36
2023-06-30T09:01:49.143Z,24.42
2023-06-30T09:02:49.233Z,24.37
2023-06-30T09:03:49.231Z,24.55
2023-06-30T09:04:49.231Z,24.56
2023-06-30T09:05:49.442Z,24.55
2023-06-30T09:06:49.138Z,24.53
2023-06-30T09:07:49.119Z,24.68
2023-06-30T09:08:49.116Z,24.67
2023-06-30T09:09:49.113Z,24.71
2023-06-30T09:10:49.096Z,24.70
2023-06-30T09:11:49.100Z,24.74
2023-06-30T09:12:49.088Z,24.80
2023-06-30T09:13:49.084Z,24.71
2023-06-30T09:14:50.706Z,24.82
2023-06-30T09:15:49.294Z,24.80
2023-06-30T09:16:49.140Z,24.84
2023-06-30T09:17:49.114Z,24.92
2023-06-30T09:18:49.091Z,24.93
2023-06-30T09:19:49.072Z,24.90
2023-06-30T09:20:49.083Z,25.04
2023-06-30T09:21:49.069Z,25.05
2023-06-30T09:22:52.341Z,25.07
2023-06-30T09:23:49.050Z,25.24
2023-06-30T09:24:49.057Z,25.35
2023-06-30T09:25:49.306Z,25.45
2023-06-30T09:26:49.038Z,25.45
2023-06-30T09:27:49.044Z,25.49
2023-06-30T09:28:49.041Z,25.56
2023-06-30T09:29:49.039Z,25.63
2023-06-30T09:30:49.032Z,25.72
2023-06-30T09:31:49.070Z,25.85
2023-06-30T09:32:49.045Z,26.00
2023-06-30T09:33:49.202Z,26.04
2023-06-30T09:34:49.032Z,26.08
2023-06-30T09:35:49.751Z,26.13
2023-06-30T09:36:49.035Z,26.23
2023-06-30T09:37:49.009Z,26.27
2023-06-30T09:38:49.022Z,26.20
2023-06-30T09:39:49.008Z,26.24
2023-06-30T09:40:49.027Z,26.11
2023-06-30T09:41:49.030Z,26.17
2023-06-30T09:42:49.007Z,26.12
2023-06-30T09:43:49.009Z,26.31
2023-06-30T09:44:48.986Z,26.49
2023-06-30T09:45:49.708Z,26.56
2023-06-30T09:46:48.986Z,26.59
2023-06-30T09:47:49.014Z,26.61
2023-06-30T09:48:48.981Z,26.69
2023-06-30T09:49:49.042Z,26.87
2023-06-30T09:50:48.979Z,27.12
2023-06-30T09:51:48.982Z,27.20
2023-06-30T09:52:49.000Z,27.28
2023-06-30T09:53:48.990Z,27.40
2023-06-30T09:54:48.989Z,27.39
2023-06-30T09:55:48.978Z,27.39
2023-06-30T09:56:48.980Z,27.40
2023-06-30T09:57:48.964Z,27.45
2023-06-30T09:58:49.660Z,27.34
2023-06-30T09:59:48.962Z,27.34
2023-06-30T10:00:48.964Z,27.33
2023-06-30T10:01:48.968Z,27.27
2023-06-30T10:02:49.000Z,27.25
2023-06-30T10:03:49.071Z,27.24
2023-06-30T10:04:48.952Z,26.88
2023-06-30T10:05:49.473Z,26.90
2023-06-30T10:06:48.947Z,26.69
2023-06-30T10:07:48.952Z,26.60
2023-06-30T10:08:48.976Z,26.64
2023-06-30T10:09:49.165Z,26.61
2023-06-30T10:10:48.996Z,26.60
2023-06-30T10:11:48.944Z,26.42
2023-06-30T10:12:48.939Z,25.94
2023-06-30T10:13:48.939Z,25.89
2023-06-30T10:14:48.938Z,25.76
2023-06-30T10:15:49.276Z,25.91
2023-06-30T10:16:49.055Z,25.89
2023-06-30T10:17:49.141Z,25.97
2023-06-30T10:18:48.931Z,26.04
2023-06-30T10:19:48.935Z,26.17
2023-06-30T10:20:50.255Z,26.28
2023-06-30T10:21:48.923Z,26.41
2023-06-30T10:22:48.924Z,26.53
2023-06-30T10:23:48.979Z,26.60
2023-06-30T10:24:48.939Z,26.68
2023-06-30T10:25:49.718Z,26.78
2023-06-30T10:26:48.919Z,26.87
2023-06-30T10:27:48.913Z,26.98
2023-06-30T10:28:49.084Z,26.88
2023-06-30T10:29:48.914Z,26.76
2023-06-30T10:30:48.912Z,26.87
2023-06-30T10:31:48.942Z,26.87
2023-06-30T10:32:49.014Z,26.98
2023-06-30T10:33:48.934Z,26.96
2023-06-30T10:34:48.910Z,27.06
2023-06-30T10:35:49.061Z,27.02
2023-06-30T10:36:48.901Z,27.05
2023-06-30T10:37:48.900Z,26.98
2023-06-30T10:38:48.903Z,26.90
2023-06-30T10:39:48.905Z,26.79
2023-06-30T10:40:49.051Z,26.72
2023-06-30T10:41:48.904Z,26.66
2023-06-30T10:42:48.897Z,26.24
2023-06-30T10:43:48.889Z,26.06
2023-06-30T10:44:48.891Z,25.72
2023-06-30T10:45:48.885Z,25.66
2023-06-30T10:46:48.969Z,25.75
2023-06-30T10:47:48.916Z,25.79
2023-06-30T10:48:48.880Z,25.90
2023-06-30T10:49:48.879Z,25.97
2023-06-30T10:50:48.879Z,25.97
2023-06-30T10:51:48.881Z,26.00
2023-06-30T10:52:48.877Z,25.72
2023-06-30T10:53:48.877Z,25.36
2023-06-30T10:54:48.941Z,25.22
2023-06-30T10:55:49.010Z,25.22
2023-06-30T10:56:48.893Z,25.22
2023-06-30T10:57:48.863Z,25.14
2023-06-30T10:58:48.866Z,25.14
2023-06-30T10:59:48.862Z,25.17
2023-06-30T11:00:48.857Z,24.99
2023-06-30T11:01:48.855Z,24.63
2023-06-30T11:02:48.963Z,24.18
2023-06-30T11:03:49.034Z,23.74
2023-06-30T11:04:49.027Z,23.69
2023-06-30T11:05:48.852Z,23.60
2023-06-30T11:06:48.851Z,23.53
2023-06-30T11:07:48.845Z,23.41
2023-06-30T11:08:48.847Z,23.50
2023-06-30T11:09:48.828Z,23.63
2023-06-30T11:10:48.829Z,23.75
2023-06-30T11:11:48.838Z,23.82
2023-06-30T11:12:48.845Z,23.93
2023-06-30T11:13:48.818Z,24.08
2023-06-30T11:14:48.819Z,24.16
2023-06-30T11:15:51.614Z,24.30
2023-06-30T11:16:48.813Z,24.37
2023-06-30T11:17:48.890Z,24.37
2023-06-30T11:18:48.968Z,24.41
2023-06-30T11:19:48.921Z,24.42
2023-06-30T11:20:48.799Z,24.31
2023-06-30T11:21:48.795Z,24.34
2023-06-30T11:22:48.795Z,24.29
2023-06-30T11:23:48.785Z,24.30
2023-06-30T11:24:48.786Z,24.31
2023-06-30T11:25:48.790Z,24.26
2023-06-30T11:26:48.775Z,24.39
2023-06-30T11:27:48.769Z,24.37
2023-06-30T11:28:48.807Z,24.33
2023-06-30T11:29:48.793Z,24.39
2023-06-30T11:30:48.825Z,24.46
2023-06-30T11:31:48.772Z,24.61
2023-06-30T11:32:48.779Z,24.60
2023-06-30T11:33:48.753Z,24.36
2023-06-30T11:34:48.748Z,24.34
2023-06-30T11:35:48.774Z,24.41
2023-06-30T11:36:48.741Z,24.33
2023-06-30T11:37:48.735Z,24.21
2023-06-30T11:38:48.732Z,24.24
2023-06-30T11:39:48.729Z,24.26
2023-06-30T11:40:48.730Z,24.12
2023-06-30T11:41:48.738Z,24.12
2023-06-30T11:42:48.722Z,24.15
2023-06-30T11:43:48.710Z,24.36
2023-06-30T11:44:48.743Z,23.87
2023-06-30T11:45:48.762Z,23.72
2023-06-30T11:46:50.596Z,23.74
2023-06-30T11:47:48.741Z,23.93
2023-06-30T11:48:48.695Z,24.04
2023-06-30T11:49:48.696Z,24.21
2023-06-30T11:50:48.690Z,24.29
2023-06-30T11:51:48.694Z,24.44
2023-06-30T11:52:48.695Z,24.60
2023-06-30T11:53:48.694Z,24.75
2023-06-30T11:54:48.677Z,24.70
2023-06-30T11:55:48.673Z,24.67
2023-06-30T11:56:48.669Z,24.36
2023-06-30T11:57:48.694Z,24.37
2023-06-30T11:58:48.663Z,24.27
2023-06-30T11:59:48.656Z,24.34
2023-06-30T12:00:48.680Z,24.45
2023-06-30T12:01:48.648Z,24.61
2023-06-30T12:02:50.481Z,24.79
2023-06-30T12:03:48.715Z,24.93
2023-06-30T12:04:48.695Z,24.86
2023-06-30T12:05:48.713Z,25.08
2023-06-30T12:06:48.637Z,25.05
2023-06-30T12:07:48.627Z,24.97
2023-06-30T12:08:48.627Z,25.01
2023-06-30T12:09:48.619Z,24.90
2023-06-30T12:10:48.639Z,24.93
2023-06-30T12:11:48.613Z,25.01
2023-06-30T12:12:48.615Z,25.02
2023-06-30T12:13:48.614Z,25.02
2023-06-30T12:14:48.608Z,25.14
2023-06-30T12:15:48.610Z,25.07
2023-06-30T12:16:48.691Z,25.26
2023-06-30T12:17:48.602Z,25.05
2023-06-30T12:18:48.593Z,25.04
2023-06-30T12:19:48.589Z,25.07
2023-06-30T12:20:48.589Z,25.14
2023-06-30T12:21:48.585Z,25.20
2023-06-30T12:22:48.583Z,25.09
2023-06-30T12:23:48.577Z,25.23
2023-06-30T12:24:48.578Z,25.23
2023-06-30T12:25:48.572Z,25.29
2023-06-30T12:26:48.569Z,25.30
2023-06-30T12:27:48.564Z,25.24
2023-06-30T12:28:48.573Z,25.22
2023-06-30T12:29:48.568Z,25.16
2023-06-30T12:30:48.557Z,25.11
2023-06-30T12:31:48.970Z,25.05
2023-06-30T12:32:48.653Z,24.98
2023-06-30T12:33:48.546Z,25.04
2023-06-30T12:34:48.553Z,24.93
2023-06-30T12:35:48.539Z,24.93
2023-06-30T12:36:48.539Z,24.89
2023-06-30T12:37:48.536Z,24.74
2023-06-30T12:38:48.537Z,24.66
2023-06-30T12:39:48.577Z,24.71
2023-06-30T12:40:48.870Z,24.67
2023-06-30T12:41:48.524Z,24.52
2023-06-30T12:42:48.532Z,24.53
2023-06-30T12:43:48.545Z,24.59
2023-06-30T12:44:48.528Z,24.56
2023-06-30T12:45:48.611Z,24.52
2023-06-30T12:46:48.510Z,24.42
2023-06-30T12:47:48.517Z,24.45
2023-06-30T12:48:48.522Z,24.29
2023-06-30T12:49:48.500Z,24.31
2023-06-30T12:50:48.698Z,24.41
2023-06-30T12:51:48.492Z,24.36
2023-06-30T12:52:48.493Z,24.31
2023-06-30T12:53:48.483Z,24.34
2023-06-30T12:54:48.490Z,24.36
2023-06-30T12:55:48.475Z,24.37